createdAt,value
2022-11-22T00:00:03.565Z,2.00
2022-11-22T00:01:03.579Z,2.00
2022-11-22T00:02:03.548Z,2.00
2022-11-22T00:03:03.494Z,2.00
2022-11-22T00:04:03.563Z,2.00
2022-11-22T00:05:03.302Z,2.00
2022-11-22T00:06:03.276Z,2.00
2022-11-22T00:07:03.244Z,2.00
2022-11-22T00:08:03.229Z,2.00
2022-11-22T00:09:03.329Z,2.00
2022-11-22T00:10:03.378Z,2.00
2022-11-22T00:11:03.405Z,2.00
2022-11-22T00:12:03.414Z,2.00
2022-11-22T00:13:03.525Z,2.00
2022-11-22T00:14:03.583Z,2.00
2022-11-22T00:15:03.630Z,2.00
2022-11-22T00:16:03.615Z,2.00
2022-11-22T00:17:02.626Z,2.00
2022-11-22T00:18:02.814Z,2.00
2022-11-22T00:19:02.740Z,2.00
2022-11-22T00:20:02.776Z,2.00
2022-11-22T00:21:02.757Z,2.00
2022-11-22T00:22:02.825Z,2.00
2022-11-22T00:23:02.883Z,2.00
2022-11-22T00:24:02.892Z,2.00
2022-11-22T00:25:02.862Z,2.10
2022-11-22T00:26:02.897Z,2.00
2022-11-22T00:27:02.874Z,2.10
2022-11-22T00:28:03.705Z,2.10
2022-11-22T00:29:02.783Z,2.00
2022-11-22T00:30:02.784Z,2.10
2022-11-22T00:31:02.674Z,2.10
2022-11-22T00:32:02.626Z,2.10
2022-11-22T00:33:02.602Z,2.10
2022-11-22T00:34:02.749Z,2.10
2022-11-22T00:35:02.763Z,2.10
2022-11-22T00:36:02.684Z,2.10
2022-11-22T00:37:02.725Z,2.10
2022-11-22T00:38:02.651Z,2.10
2022-11-22T00:39:03.669Z,2.10
2022-11-22T00:40:03.601Z,2.10
2022-11-22T00:41:03.590Z,2.10
2022-11-22T00:42:03.757Z,2.10
2022-11-22T00:43:03.585Z,2.10
2022-11-22T00:44:03.505Z,2.10
2022-11-22T00:45:02.626Z,2.10
2022-11-22T00:46:02.679Z,2.10
2022-11-22T00:47:02.650Z,2.10
2022-11-22T00:48:02.717Z,2.10
2022-11-22T00:49:02.778Z,2.10
2022-11-22T00:50:02.730Z,2.10
2022-11-22T00:51:02.704Z,2.10
2022-11-22T00:52:02.708Z,2.10
2022-11-22T00:53:02.618Z,2.10
2022-11-22T00:54:02.773Z,2.00
2022-11-22T00:55:02.629Z,2.00
2022-11-22T00:56:02.636Z,2.00
2022-11-22T00:57:03.634Z,2.00
2022-11-22T00:58:03.603Z,2.00
2022-11-22T00:59:03.596Z,2.10
2022-11-22T01:00:03.516Z,2.00
2022-11-22T01:01:03.614Z,2.10
2022-11-22T01:02:02.612Z,2.10
2022-11-22T01:03:02.631Z,2.10
2022-11-22T01:04:02.811Z,2.10
2022-11-22T01:05:02.678Z,2.10
2022-11-22T01:06:02.640Z,2.10
2022-11-22T01:07:02.765Z,2.10
2022-11-22T01:08:02.729Z,2.10
2022-11-22T01:09:02.762Z,2.10
2022-11-22T01:10:03.093Z,2.10
2022-11-22T01:11:05.218Z,2.10
2022-11-22T01:12:03.299Z,2.10
2022-11-22T01:13:03.392Z,2.10
2022-11-22T01:14:03.368Z,2.10
2022-11-22T01:15:03.403Z,2.10
2022-11-22T01:16:03.451Z,2.10
2022-11-22T01:17:03.541Z,2.10
2022-11-22T01:18:03.495Z,2.10
2022-11-22T01:19:03.389Z,2.10
2022-11-22T01:20:03.490Z,2.10
2022-11-22T01:21:03.433Z,2.10
2022-11-22T01:22:03.491Z,2.10
2022-11-22T01:23:03.426Z,2.10
2022-11-22T01:24:03.591Z,2.10
2022-11-22T01:25:03.496Z,2.10
2022-11-22T01:26:02.592Z,2.10
2022-11-22T01:27:02.624Z,2.10
2022-11-22T01:28:02.690Z,2.00
2022-11-22T01:29:02.745Z,2.00
2022-11-22T01:30:02.866Z,2.00
2022-11-22T01:31:02.767Z,2.00
2022-11-22T01:32:02.843Z,2.00
2022-11-22T01:33:02.855Z,2.00
2022-11-22T01:34:02.879Z,2.00
2022-11-22T01:35:02.981Z,2.00
2022-11-22T01:36:02.964Z,2.00
2022-11-22T01:37:02.961Z,2.00
2022-11-22T01:38:03.061Z,1.90
2022-11-22T01:39:03.070Z,1.90
2022-11-22T01:40:03.137Z,1.90
2022-11-22T01:41:03.128Z,1.90
2022-11-22T01:42:03.298Z,1.90
2022-11-22T01:43:03.231Z,1.90
2022-11-22T01:44:03.603Z,1.90
2022-11-22T01:45:03.550Z,1.90
2022-11-22T01:46:03.605Z,1.90
2022-11-22T01:47:02.616Z,1.90
2022-11-22T01:48:02.679Z,1.90
2022-11-22T01:49:02.668Z,1.90
2022-11-22T01:50:02.689Z,1.90
2022-11-22T01:51:02.694Z,1.80
2022-11-22T01:52:02.827Z,1.80
2022-11-22T01:53:03.065Z,1.80
2022-11-22T01:54:03.106Z,1.80
2022-11-22T01:55:03.233Z,1.80
2022-11-22T01:56:03.145Z,1.80
2022-11-22T01:57:03.075Z,1.80
2022-11-22T01:58:03.097Z,1.80
2022-11-22T01:59:03.105Z,1.80
2022-11-22T02:00:03.101Z,1.80
2022-11-22T02:01:03.273Z,1.80
2022-11-22T02:02:03.157Z,1.80
2022-11-22T02:03:03.286Z,1.80
2022-11-22T02:04:03.269Z,1.80
2022-11-22T02:05:03.207Z,1.80
2022-11-22T02:06:03.182Z,1.80
2022-11-22T02:07:03.156Z,1.80
2022-11-22T02:08:03.153Z,1.80
2022-11-22T02:09:03.125Z,1.70
2022-11-22T02:10:03.087Z,1.80
2022-11-22T02:11:03.106Z,1.70
2022-11-22T02:12:03.159Z,1.80
2022-11-22T02:13:03.146Z,1.80
2022-11-22T02:14:03.105Z,1.80
2022-11-22T02:15:03.119Z,1.80
2022-11-22T02:16:03.079Z,1.80
2022-11-22T02:17:03.018Z,1.80
2022-11-22T02:18:03.028Z,1.80
2022-11-22T02:19:03.034Z,1.80
2022-11-22T02:20:03.066Z,1.80
2022-11-22T02:21:03.023Z,1.80
2022-11-22T02:22:02.992Z,1.80
2022-11-22T02:23:03.027Z,1.80
2022-11-22T02:24:02.953Z,1.80
2022-11-22T02:25:02.860Z,1.80
2022-11-22T02:26:02.752Z,1.80
2022-11-22T02:27:02.615Z,1.80
2022-11-22T02:28:03.607Z,1.80
2022-11-22T02:29:03.563Z,1.80
2022-11-22T02:30:03.464Z,1.80
2022-11-22T02:31:03.585Z,1.80
2022-11-22T02:32:03.632Z,1.80
2022-11-22T02:33:03.572Z,1.80
2022-11-22T02:34:03.524Z,1.80
2022-11-22T02:35:03.554Z,1.80
2022-11-22T02:36:03.545Z,1.80
2022-11-22T02:37:02.600Z,1.80
2022-11-22T02:38:03.601Z,1.80
2022-11-22T02:39:03.575Z,1.80
2022-11-22T02:40:03.534Z,1.80
2022-11-22T02:41:03.463Z,1.80
2022-11-22T02:42:03.445Z,1.80
2022-11-22T02:43:03.678Z,1.80
2022-11-22T02:44:03.562Z,1.80
2022-11-22T02:45:03.573Z,1.80
2022-11-22T02:46:03.565Z,1.80
2022-11-22T02:47:03.471Z,1.90
2022-11-22T02:48:03.400Z,1.80
2022-11-22T02:49:03.474Z,1.90
2022-11-22T02:50:03.412Z,1.90
2022-11-22T02:51:03.029Z,1.80
2022-11-22T02:52:03.007Z,1.90
2022-11-22T02:53:02.976Z,1.90
2022-11-22T02:54:02.985Z,1.90
2022-11-22T02:55:02.940Z,1.90
2022-11-22T02:56:03.100Z,1.90
2022-11-22T02:57:03.075Z,1.90
2022-11-22T02:58:02.756Z,1.90
2022-11-22T02:59:02.675Z,1.90
2022-11-22T03:00:02.653Z,1.90
2022-11-22T03:01:02.820Z,1.90
2022-11-22T03:02:03.470Z,1.90
2022-11-22T03:03:02.745Z,1.90
2022-11-22T03:04:02.845Z,1.90
2022-11-22T03:05:02.786Z,1.90
2022-11-22T03:06:02.864Z,1.90
2022-11-22T03:07:02.836Z,1.90
2022-11-22T03:08:02.747Z,1.90
2022-11-22T03:09:02.751Z,1.90
2022-11-22T03:10:02.807Z,1.90
2022-11-22T03:11:02.867Z,1.90
2022-11-22T03:12:02.823Z,1.80
2022-11-22T03:13:02.833Z,1.80
2022-11-22T03:14:02.724Z,1.80
2022-11-22T03:15:02.697Z,1.80
2022-11-22T03:16:02.635Z,1.80
2022-11-22T03:17:02.673Z,1.80
2022-11-22T03:18:03.200Z,1.80
2022-11-22T03:19:03.238Z,1.80
2022-11-22T03:20:03.364Z,1.80
2022-11-22T03:21:03.309Z,1.70
2022-11-22T03:22:03.300Z,1.80
2022-11-22T03:23:03.379Z,1.80
2022-11-22T03:24:03.460Z,1.80
2022-11-22T03:25:03.461Z,1.70
2022-11-22T03:26:03.393Z,1.80
2022-11-22T03:27:03.362Z,1.70
2022-11-22T03:28:03.340Z,1.70
2022-11-22T03:29:03.323Z,1.70
2022-11-22T03:30:02.944Z,1.70
2022-11-22T03:31:02.965Z,1.70
2022-11-22T03:32:03.012Z,1.70
2022-11-22T03:33:02.978Z,1.70
2022-11-22T03:34:02.941Z,1.70
2022-11-22T03:35:03.054Z,1.70
2022-11-22T03:36:03.154Z,1.70
2022-11-22T03:37:03.171Z,1.70
2022-11-22T03:38:03.182Z,1.70
2022-11-22T03:39:03.183Z,1.70
2022-11-22T03:40:03.170Z,1.70
2022-11-22T03:41:03.191Z,1.70
2022-11-22T03:42:03.144Z,1.70
2022-11-22T03:43:03.109Z,1.70
2022-11-22T03:44:03.074Z,1.70
2022-11-22T03:45:03.116Z,1.70
2022-11-22T03:46:04.315Z,1.70
2022-11-22T03:47:03.124Z,1.70
2022-11-22T03:48:03.144Z,1.70
2022-11-22T03:49:03.082Z,1.70
2022-11-22T03:50:03.039Z,1.70
2022-11-22T03:51:03.036Z,1.70
2022-11-22T03:52:02.980Z,1.70
2022-11-22T03:53:04.118Z,1.70
2022-11-22T03:54:02.747Z,1.70
2022-11-22T03:55:02.713Z,1.70
2022-11-22T03:56:02.703Z,1.70
2022-11-22T03:57:02.893Z,1.70
2022-11-22T03:58:02.831Z,1.60
2022-11-22T03:59:02.835Z,1.60
2022-11-22T04:00:02.812Z,1.60
2022-11-22T04:01:02.811Z,1.60
2022-11-22T04:02:02.925Z,1.60
2022-11-22T04:03:02.858Z,1.60
2022-11-22T04:04:02.842Z,1.60
2022-11-22T04:05:02.842Z,1.60
2022-11-22T04:06:02.824Z,1.60
2022-11-22T04:07:02.787Z,1.60
2022-11-22T04:08:02.819Z,1.60
2022-11-22T04:09:02.797Z,1.60
2022-11-22T04:10:02.780Z,1.50
2022-11-22T04:11:02.827Z,1.50
2022-11-22T04:12:02.892Z,1.50
2022-11-22T04:13:02.840Z,1.50
2022-11-22T04:14:02.809Z,1.50
2022-11-22T04:15:02.758Z,1.50
2022-11-22T04:16:02.716Z,1.50
2022-11-22T04:17:02.806Z,1.50
2022-11-22T04:18:02.893Z,1.50
2022-11-22T04:19:02.868Z,1.50
2022-11-22T04:20:02.953Z,1.50
2022-11-22T04:21:03.089Z,1.50
2022-11-22T04:22:03.023Z,1.50
2022-11-22T04:23:03.062Z,1.50
2022-11-22T04:24:03.129Z,1.50
2022-11-22T04:25:03.247Z,1.50
2022-11-22T04:26:03.162Z,1.50
2022-11-22T04:27:03.326Z,1.50
2022-11-22T04:28:03.256Z,1.50
2022-11-22T04:29:09.508Z,1.50
2022-11-22T04:30:03.274Z,1.50
2022-11-22T04:31:03.174Z,1.50
2022-11-22T04:32:03.220Z,1.50
2022-11-22T04:33:02.817Z,1.50
2022-11-22T04:34:03.083Z,1.50
2022-11-22T04:35:03.128Z,1.50
2022-11-22T04:36:03.008Z,1.50
2022-11-22T04:37:02.943Z,1.50
2022-11-22T04:38:03.008Z,1.50
2022-11-22T04:39:03.137Z,1.50
2022-11-22T04:40:03.070Z,1.50
2022-11-22T04:41:03.031Z,1.50
2022-11-22T04:42:03.117Z,1.50
2022-11-22T04:43:03.125Z,1.50
2022-11-22T04:44:03.096Z,1.50
2022-11-22T04:45:03.063Z,1.50
2022-11-22T04:46:03.045Z,1.50
2022-11-22T04:47:02.939Z,1.50
2022-11-22T04:48:02.963Z,1.60
2022-11-22T04:49:02.909Z,1.60
2022-11-22T04:50:02.815Z,1.50
2022-11-22T04:51:02.836Z,1.60
2022-11-22T04:52:02.830Z,1.60
2022-11-22T04:53:02.826Z,1.60
2022-11-22T04:54:02.628Z,1.60
2022-11-22T04:55:03.624Z,1.60
2022-11-22T04:56:03.496Z,1.60
2022-11-22T04:57:03.576Z,1.60
2022-11-22T04:58:03.600Z,1.60
2022-11-22T04:59:03.624Z,1.60
2022-11-22T05:00:03.644Z,1.60
2022-11-22T05:01:02.922Z,1.60
2022-11-22T05:02:02.897Z,1.60
2022-11-22T05:03:03.018Z,1.60
2022-11-22T05:04:02.966Z,1.60
2022-11-22T05:05:02.969Z,1.60
2022-11-22T05:06:02.981Z,1.60
2022-11-22T05:07:02.950Z,1.60
2022-11-22T05:08:02.960Z,1.70
2022-11-22T05:09:03.012Z,1.70
2022-11-22T05:10:02.989Z,1.70
2022-11-22T05:11:03.056Z,1.70
2022-11-22T05:12:02.942Z,1.70
2022-11-22T05:13:02.967Z,1.70
2022-11-22T05:14:03.059Z,1.70
2022-11-22T05:15:03.087Z,1.80
2022-11-22T05:16:03.117Z,1.80
2022-11-22T05:17:03.368Z,1.80
2022-11-22T05:18:03.312Z,1.80
2022-11-22T05:19:03.314Z,1.80
2022-11-22T05:20:03.270Z,1.80
2022-11-22T05:21:03.275Z,1.80
2022-11-22T05:22:03.337Z,1.80
2022-11-22T05:23:03.260Z,1.80
2022-11-22T05:24:03.134Z,1.80
2022-11-22T05:25:03.680Z,1.80
2022-11-22T05:26:03.348Z,1.90
2022-11-22T05:27:03.395Z,1.90
2022-11-22T05:28:03.803Z,1.90
2022-11-22T05:29:03.465Z,1.90
2022-11-22T05:30:03.595Z,1.90
2022-11-22T05:31:03.563Z,1.90
2022-11-22T05:32:03.570Z,1.90
2022-11-22T05:33:03.486Z,1.90
2022-11-22T05:34:03.510Z,1.90
2022-11-22T05:35:03.514Z,1.90
2022-11-22T05:36:03.448Z,1.90
2022-11-22T05:37:03.359Z,1.90
2022-11-22T05:38:03.447Z,1.90
2022-11-22T05:39:03.418Z,1.90
2022-11-22T05:40:03.498Z,1.90
2022-11-22T05:41:03.447Z,2.00
2022-11-22T05:42:03.457Z,2.00
2022-11-22T05:43:03.476Z,2.00
2022-11-22T05:44:03.447Z,2.00
2022-11-22T05:45:03.465Z,2.00
2022-11-22T05:46:03.469Z,2.00
2022-11-22T05:47:03.480Z,2.00
2022-11-22T05:48:03.568Z,2.00
2022-11-22T05:49:03.548Z,2.00
2022-11-22T05:50:03.491Z,2.00
2022-11-22T05:51:03.545Z,2.00
2022-11-22T05:52:03.465Z,2.00
2022-11-22T05:53:03.470Z,2.00
2022-11-22T05:54:03.559Z,2.00
2022-11-22T05:55:03.593Z,2.00
2022-11-22T05:56:03.579Z,2.00
2022-11-22T05:57:03.447Z,2.00
2022-11-22T05:58:03.464Z,2.00
2022-11-22T05:59:03.431Z,2.00
2022-11-22T06:00:03.535Z,2.00
2022-11-22T06:01:03.489Z,2.00
2022-11-22T06:02:03.578Z,2.00
2022-11-22T06:03:03.457Z,2.00
2022-11-22T06:04:03.478Z,2.00
2022-11-22T06:05:03.454Z,2.00
2022-11-22T06:06:03.450Z,2.00
2022-11-22T06:07:08.462Z,2.00
2022-11-22T06:08:03.540Z,2.00
2022-11-22T06:09:03.546Z,2.00
2022-11-22T06:10:03.630Z,2.10
2022-11-22T06:11:03.554Z,2.10
2022-11-22T06:12:03.556Z,2.10
2022-11-22T06:13:03.574Z,2.10
2022-11-22T06:14:03.609Z,2.10
2022-11-22T06:15:03.564Z,2.10
2022-11-22T06:16:02.720Z,2.10
2022-11-22T06:17:02.705Z,2.10
2022-11-22T06:18:02.718Z,2.10
2022-11-22T06:19:02.615Z,2.10
2022-11-22T06:20:05.985Z,2.10
2022-11-22T06:21:02.629Z,2.10
2022-11-22T06:22:02.646Z,2.20
2022-11-22T06:23:02.654Z,2.20
2022-11-22T06:24:02.800Z,2.20
2022-11-22T06:25:02.839Z,2.20
2022-11-22T06:26:02.940Z,2.20
2022-11-22T06:27:02.975Z,2.20
2022-11-22T06:28:02.961Z,2.20
2022-11-22T06:29:03.082Z,2.20
2022-11-22T06:30:03.062Z,2.20
2022-11-22T06:31:02.902Z,2.20
2022-11-22T06:32:03.944Z,2.30
2022-11-22T06:33:02.813Z,2.30
2022-11-22T06:34:02.804Z,2.30
2022-11-22T06:35:02.851Z,2.30
2022-11-22T06:36:02.791Z,2.30
2022-11-22T06:37:02.858Z,2.30
2022-11-22T06:38:02.755Z,2.30
2022-11-22T06:39:02.818Z,2.30
2022-11-22T06:40:02.910Z,2.30
2022-11-22T06:41:02.943Z,2.30
2022-11-22T06:42:02.865Z,2.30
2022-11-22T06:43:02.883Z,2.30
2022-11-22T06:44:03.002Z,2.30
2022-11-22T06:45:03.059Z,2.30
2022-11-22T06:46:03.128Z,2.30
2022-11-22T06:47:03.137Z,2.30
2022-11-22T06:48:03.098Z,2.30
2022-11-22T06:49:02.980Z,2.40
2022-11-22T06:50:03.074Z,2.40
2022-11-22T06:51:03.155Z,2.40
2022-11-22T06:52:03.233Z,2.40
2022-11-22T06:53:03.475Z,2.40
2022-11-22T06:54:03.421Z,2.40
2022-11-22T06:55:07.842Z,2.40
2022-11-22T06:56:02.678Z,2.40
2022-11-22T06:57:03.574Z,2.40
2022-11-22T06:58:03.668Z,2.40
2022-11-22T06:59:03.562Z,2.40
2022-11-22T07:00:03.547Z,2.40
2022-11-22T07:01:02.691Z,2.40
2022-11-22T07:02:06.222Z,2.40
2022-11-22T07:03:02.736Z,2.40
2022-11-22T07:04:02.734Z,2.40
2022-11-22T07:05:24.385Z,2.40
2022-11-22T07:06:02.791Z,2.50
2022-11-22T07:07:02.782Z,2.50
2022-11-22T07:08:05.644Z,2.50
2022-11-22T07:09:02.794Z,2.50
2022-11-22T07:10:02.791Z,2.50
2022-11-22T07:11:02.767Z,2.50
2022-11-22T07:12:02.779Z,2.50
2022-11-22T07:13:02.882Z,2.50
2022-11-22T07:14:07.425Z,2.60
2022-11-22T07:15:02.841Z,2.60
2022-11-22T07:16:02.836Z,2.60
2022-11-22T07:17:02.970Z,2.60
2022-11-22T07:18:03.099Z,2.60
2022-11-22T07:19:03.049Z,2.60
2022-11-22T07:20:03.074Z,2.60
2022-11-22T07:21:05.734Z,2.60
2022-11-22T07:22:03.201Z,2.60
2022-11-22T07:23:03.113Z,2.60
2022-11-22T07:24:03.171Z,2.60
2022-11-22T07:25:03.225Z,2.60
2022-11-22T07:26:03.136Z,2.60
2022-11-22T07:27:03.073Z,2.70
2022-11-22T07:28:03.089Z,2.70
2022-11-22T07:29:03.184Z,2.70
2022-11-22T07:30:03.149Z,2.70
2022-11-22T07:31:03.172Z,2.70
2022-11-22T07:32:03.257Z,2.70
2022-11-22T07:33:03.397Z,2.70
2022-11-22T07:34:03.395Z,2.70
2022-11-22T07:35:03.310Z,2.70
2022-11-22T07:36:03.376Z,2.70
2022-11-22T07:37:07.648Z,2.80
2022-11-22T07:38:03.351Z,2.80
2022-11-22T07:39:03.384Z,2.80
2022-11-22T07:40:03.401Z,2.80
2022-11-22T07:41:03.410Z,2.80
2022-11-22T07:42:03.436Z,2.80
2022-11-22T07:43:03.530Z,2.80
2022-11-22T07:44:02.616Z,2.90
2022-11-22T07:45:02.734Z,2.90
2022-11-22T07:46:02.663Z,2.90
2022-11-22T07:47:02.742Z,2.90
2022-11-22T07:48:03.651Z,2.90
2022-11-22T07:49:03.617Z,3.00
2022-11-22T07:50:02.613Z,3.00
2022-11-22T07:51:02.674Z,3.00
2022-11-22T07:52:02.697Z,3.00
2022-11-22T07:53:02.810Z,3.00
2022-11-22T07:54:02.708Z,3.00
2022-11-22T07:55:02.813Z,3.00
2022-11-22T07:56:02.847Z,3.10
2022-11-22T07:57:02.828Z,3.10
2022-11-22T07:58:02.853Z,3.10
2022-11-22T07:59:02.893Z,3.10
2022-11-22T08:00:02.753Z,3.10
2022-11-22T08:01:02.714Z,3.20
2022-11-22T08:02:02.838Z,3.20
2022-11-22T08:03:02.678Z,3.20
2022-11-22T08:04:02.684Z,3.20
2022-11-22T08:05:02.641Z,3.20
2022-11-22T08:06:03.701Z,3.20
2022-11-22T08:07:02.765Z,3.30
2022-11-22T08:08:02.775Z,3.30
2022-11-22T08:09:02.682Z,3.30
2022-11-22T08:10:02.781Z,3.30
2022-11-22T08:11:02.665Z,3.40
2022-11-22T08:12:02.748Z,3.40
2022-11-22T08:13:02.687Z,3.40
2022-11-22T08:14:02.788Z,3.40
2022-11-22T08:15:02.700Z,3.40
2022-11-22T08:16:05.398Z,3.50
2022-11-22T08:17:02.838Z,3.50
2022-11-22T08:18:02.830Z,3.50
2022-11-22T08:19:02.771Z,3.50
2022-11-22T08:20:02.760Z,3.50
2022-11-22T08:21:02.859Z,3.50
2022-11-22T08:22:03.048Z,3.60
2022-11-22T08:23:02.868Z,3.60
2022-11-22T08:24:02.972Z,3.60
2022-11-22T08:25:02.943Z,3.60
2022-11-22T08:26:03.080Z,3.60
2022-11-22T08:27:03.001Z,3.60
2022-11-22T08:28:03.059Z,3.70
2022-11-22T08:29:03.202Z,3.70
2022-11-22T08:30:03.217Z,3.70
2022-11-22T08:31:03.245Z,3.70
2022-11-22T08:32:03.129Z,3.70
2022-11-22T08:33:03.147Z,3.70
2022-11-22T08:34:03.241Z,3.80
2022-11-22T08:35:03.202Z,3.80
2022-11-22T08:36:03.261Z,3.80
2022-11-22T08:37:03.259Z,3.80
2022-11-22T08:38:03.229Z,3.80
2022-11-22T08:39:03.189Z,3.80
2022-11-22T08:40:03.290Z,3.80
2022-11-22T08:41:03.243Z,3.80
2022-11-22T08:42:03.253Z,3.90
2022-11-22T08:43:03.188Z,3.90
2022-11-22T08:44:03.258Z,3.90
2022-11-22T08:45:03.112Z,3.90
2022-11-22T08:46:03.207Z,3.90
2022-11-22T08:47:03.282Z,3.90
2022-11-22T08:48:03.152Z,3.90
2022-11-22T08:49:03.210Z,3.90
2022-11-22T08:50:03.196Z,4.00
2022-11-22T08:51:03.237Z,4.00
2022-11-22T08:52:03.267Z,4.00
2022-11-22T08:53:03.183Z,4.00
2022-11-22T08:54:03.108Z,4.00
2022-11-22T08:55:03.055Z,4.00
2022-11-22T08:56:02.981Z,4.00
2022-11-22T08:57:03.017Z,4.10
2022-11-22T08:58:03.158Z,4.10
2022-11-22T08:59:03.176Z,4.10
2022-11-22T09:00:03.128Z,4.10
2022-11-22T09:01:03.261Z,4.10
2022-11-22T09:02:03.247Z,4.10
2022-11-22T09:03:03.192Z,4.10
2022-11-22T09:04:03.291Z,4.10
2022-11-22T09:05:03.279Z,4.20
2022-11-22T09:08:25.553Z,4.20
2022-11-22T09:09:30.437Z,4.20
2022-11-22T09:10:02.797Z,4.20
2022-11-22T09:11:02.683Z,4.20
2022-11-22T09:12:02.762Z,4.20
2022-11-22T09:13:02.769Z,4.20
2022-11-22T09:14:02.720Z,4.30
2022-11-22T09:15:02.787Z,4.30
2022-11-22T09:16:02.700Z,4.30
2022-11-22T09:17:02.667Z,4.30
2022-11-22T09:18:02.630Z,4.30
2022-11-22T09:19:02.637Z,4.30
2022-11-22T09:20:03.041Z,4.30
2022-11-22T09:21:03.105Z,4.30
2022-11-22T09:22:03.025Z,4.40
2022-11-22T09:23:03.101Z,4.40
2022-11-22T09:24:02.973Z,4.40
2022-11-22T09:25:03.079Z,4.40
2022-11-22T09:26:03.141Z,4.40
2022-11-22T09:27:03.074Z,4.40
2022-11-22T09:28:03.106Z,4.40
2022-11-22T09:29:03.137Z,4.50
2022-11-22T09:30:03.166Z,4.50
2022-11-22T09:31:03.081Z,4.50
2022-11-22T09:32:03.130Z,4.50
2022-11-22T09:33:03.221Z,4.50
2022-11-22T09:34:03.254Z,4.50
2022-11-22T09:35:03.199Z,4.60
2022-11-22T09:36:03.254Z,4.60
2022-11-22T09:37:03.171Z,4.60
2022-11-22T09:38:03.195Z,4.60
2022-11-22T09:39:03.149Z,4.60
2022-11-22T09:40:03.305Z,4.60
2022-11-22T09:41:03.250Z,4.70
2022-11-22T09:42:03.282Z,4.70
2022-11-22T09:43:03.239Z,4.70
2022-11-22T09:44:03.219Z,4.70
2022-11-22T09:45:03.284Z,4.70
2022-11-22T09:46:03.138Z,4.70
2022-11-22T09:47:03.196Z,4.70
2022-11-22T09:48:06.815Z,4.80
2022-11-22T09:49:03.048Z,4.80
2022-11-22T09:50:03.064Z,4.80
2022-11-22T09:51:03.108Z,4.80
2022-11-22T09:52:03.055Z,4.80
2022-11-22T09:53:03.031Z,4.80
2022-11-22T09:54:03.136Z,4.80
2022-11-22T09:55:03.177Z,4.80
2022-11-22T09:56:02.997Z,4.90
2022-11-22T09:57:02.934Z,4.90
2022-11-22T09:58:02.991Z,4.90
2022-11-22T09:59:02.955Z,4.90
2022-11-22T10:00:02.902Z,4.90
2022-11-22T10:01:03.076Z,4.90
2022-11-22T10:02:11.855Z,5.00
2022-11-22T10:03:02.906Z,5.00
2022-11-22T10:04:03.079Z,5.00
2022-11-22T10:05:02.962Z,5.00
2022-11-22T10:06:03.022Z,5.10
2022-11-22T10:07:03.024Z,5.10
2022-11-22T10:08:02.932Z,5.10
2022-11-22T10:09:02.918Z,5.10
2022-11-22T10:10:02.880Z,5.10
2022-11-22T10:11:02.806Z,5.10
2022-11-22T10:12:02.843Z,5.20
2022-11-22T10:13:02.888Z,5.20
2022-11-22T10:14:02.896Z,5.20
2022-11-22T10:15:02.821Z,5.20
2022-11-22T10:16:02.821Z,5.30
2022-11-22T10:17:02.961Z,5.30
2022-11-22T10:18:02.887Z,5.30
2022-11-22T10:19:02.765Z,5.30
2022-11-22T10:22:02.855Z,5.40
2022-11-22T10:23:02.813Z,5.40
2022-11-22T10:24:02.954Z,5.50
2022-11-22T10:25:02.954Z,5.50
2022-11-22T10:26:03.063Z,5.50
2022-11-22T10:27:03.113Z,5.50
2022-11-22T10:28:03.032Z,5.50
2022-11-22T10:29:03.033Z,5.50
2022-11-22T10:30:03.132Z,5.60
2022-11-22T10:31:03.085Z,5.60
2022-11-22T10:32:03.167Z,5.60
2022-11-22T10:33:03.112Z,5.60
2022-11-22T10:34:03.178Z,5.70
2022-11-22T10:35:03.252Z,5.70
2022-11-22T10:36:03.006Z,5.70
2022-11-22T10:37:03.217Z,5.70
2022-11-22T10:38:03.158Z,5.80
2022-11-22T10:39:03.125Z,5.80
2022-11-22T10:40:03.368Z,5.80
2022-11-22T10:41:03.310Z,5.80
2022-11-22T10:42:03.220Z,5.80
2022-11-22T10:43:03.454Z,5.90
2022-11-22T10:44:05.895Z,5.90
2022-11-22T10:45:02.790Z,5.90
2022-11-22T10:46:03.283Z,5.90
2022-11-22T10:47:03.346Z,6.00
2022-11-22T10:48:03.378Z,6.00
2022-11-22T10:49:03.284Z,6.10
2022-11-22T10:50:03.528Z,6.10
2022-11-22T10:51:03.470Z,6.10
2022-11-22T10:52:03.342Z,6.20
2022-11-22T10:53:03.962Z,6.20
2022-11-22T10:54:03.814Z,6.20
2022-11-22T10:55:02.945Z,6.30
2022-11-22T10:56:02.920Z,6.30
2022-11-22T10:57:02.817Z,6.30
2022-11-22T10:58:02.897Z,6.40
2022-11-22T10:59:02.792Z,6.40
2022-11-22T11:00:02.933Z,6.40
2022-11-22T11:01:02.795Z,6.50
2022-11-22T11:02:02.837Z,6.50
2022-11-22T11:03:03.012Z,6.50
2022-11-22T11:04:02.851Z,6.50
2022-11-22T11:05:03.044Z,6.60
2022-11-22T11:06:26.444Z,6.60
2022-11-22T11:07:12.346Z,6.60
2022-11-22T11:08:15.458Z,6.60
2022-11-22T11:09:48.316Z,6.60
2022-11-22T11:10:11.088Z,6.60
2022-11-22T11:11:03.059Z,6.60
2022-11-22T11:12:03.151Z,6.60
2022-11-22T11:13:03.217Z,6.60
2022-11-22T11:14:03.211Z,6.60
2022-11-22T11:15:03.227Z,6.60
2022-11-22T11:16:03.134Z,6.70
2022-11-22T11:17:03.041Z,6.60
2022-11-22T11:18:03.159Z,6.70
2022-11-22T11:19:02.951Z,6.70
2022-11-22T11:20:03.162Z,6.70
2022-11-22T11:21:03.040Z,6.70
2022-11-22T11:22:02.999Z,6.70
2022-11-22T11:23:15.021Z,6.80
2022-11-22T11:24:03.106Z,6.80
2022-11-22T11:25:02.960Z,6.80
2022-11-22T11:26:03.119Z,6.80
2022-11-22T11:27:03.168Z,6.80
2022-11-22T11:28:02.943Z,6.80
2022-11-22T11:29:02.984Z,6.90
2022-11-22T11:30:03.086Z,6.90
2022-11-22T11:31:02.983Z,6.90
2022-11-22T11:32:03.006Z,6.90
2022-11-22T11:33:02.843Z,6.90
2022-11-22T11:34:02.842Z,6.90
2022-11-22T11:35:03.068Z,6.90
2022-11-22T11:36:02.967Z,6.90
2022-11-22T11:37:03.013Z,6.90
2022-11-22T11:38:02.880Z,6.90
2022-11-22T11:39:03.020Z,6.90
2022-11-22T11:40:02.952Z,6.90
2022-11-22T11:41:02.864Z,6.90
2022-11-22T11:42:02.912Z,6.90
2022-11-22T11:43:02.739Z,6.90
2022-11-22T11:44:02.817Z,6.90
2022-11-22T11:45:02.698Z,6.90
2022-11-22T11:46:02.789Z,6.90
2022-11-22T11:47:02.687Z,6.90
2022-11-22T11:48:02.635Z,6.90
2022-11-22T11:49:02.898Z,6.90
2022-11-22T11:50:02.885Z,6.90
2022-11-22T11:51:02.731Z,6.90
2022-11-22T11:52:02.777Z,6.90
2022-11-22T11:53:02.772Z,6.90
2022-11-22T11:54:02.800Z,6.90
2022-11-22T11:55:02.966Z,6.90
2022-11-22T11:56:02.876Z,7.00
2022-11-22T11:57:02.772Z,7.00
2022-11-22T11:58:03.058Z,7.00
2022-11-22T11:59:03.138Z,7.00
2022-11-22T12:00:03.048Z,7.00
2022-11-22T12:01:02.957Z,7.00
2022-11-22T12:02:03.178Z,7.00
2022-11-22T12:03:03.053Z,7.00
2022-11-22T12:04:03.033Z,7.00
2022-11-22T12:05:03.028Z,7.00
2022-11-22T12:06:03.303Z,7.00
2022-11-22T12:07:03.543Z,7.00
2022-11-22T12:08:03.364Z,7.00
2022-11-22T12:09:03.183Z,7.00
2022-11-22T12:10:03.394Z,6.90
2022-11-22T12:11:03.455Z,6.90
2022-11-22T12:12:03.302Z,6.90
2022-11-22T12:13:04.757Z,6.90
2022-11-22T12:14:20.186Z,6.90
2022-11-22T12:15:11.075Z,6.90
2022-11-22T12:16:03.421Z,6.90
2022-11-22T12:17:03.452Z,6.90
2022-11-22T12:18:03.269Z,6.90
2022-11-22T12:19:03.250Z,6.90
2022-11-22T12:20:03.203Z,6.90
2022-11-22T12:21:03.093Z,6.90
2022-11-22T12:22:03.146Z,6.90
2022-11-22T12:23:03.091Z,6.90
2022-11-22T12:24:26.811Z,6.90
2022-11-22T12:25:30.804Z,6.90
2022-11-22T12:26:03.641Z,6.90
2022-11-22T12:27:03.479Z,6.90
2022-11-22T12:28:03.465Z,6.90
2022-11-22T12:29:03.450Z,6.90
2022-11-22T12:30:03.540Z,6.90
2022-11-22T12:31:03.527Z,6.90
2022-11-22T12:32:03.408Z,6.90
2022-11-22T12:33:03.520Z,6.90
2022-11-22T12:34:03.806Z,6.90
2022-11-22T12:35:02.907Z,6.90
2022-11-22T12:36:02.829Z,6.90
2022-11-22T12:37:02.833Z,6.90
2022-11-22T12:38:02.825Z,6.90
2022-11-22T12:39:02.849Z,6.90
2022-11-22T12:40:02.875Z,6.90
2022-11-22T12:41:02.856Z,6.90
2022-11-22T12:42:02.872Z,6.90
2022-11-22T12:43:02.823Z,6.90
2022-11-22T12:44:02.912Z,6.90
2022-11-22T12:45:03.076Z,6.90
2022-11-22T12:46:02.848Z,6.90
2022-11-22T12:47:02.951Z,6.90
2022-11-22T12:48:03.017Z,6.80
2022-11-22T12:49:02.939Z,6.90
2022-11-22T12:50:02.971Z,6.90
2022-11-22T12:51:03.087Z,6.90
2022-11-22T12:52:03.163Z,6.90
2022-11-22T12:53:03.029Z,6.80
2022-11-22T12:54:03.078Z,6.90
2022-11-22T12:55:03.042Z,6.90
2022-11-22T12:56:02.996Z,6.90
2022-11-22T12:57:03.388Z,6.90
2022-11-22T12:58:03.208Z,6.90
2022-11-22T12:59:03.183Z,6.90
2022-11-22T13:00:05.329Z,6.90
2022-11-22T13:01:03.483Z,6.90
2022-11-22T13:02:03.444Z,6.90
2022-11-22T13:03:03.505Z,6.90
2022-11-22T13:04:03.767Z,6.90
2022-11-22T13:05:03.434Z,6.90
2022-11-22T13:06:03.470Z,6.90
2022-11-22T13:07:03.663Z,6.90
2022-11-22T13:08:03.474Z,6.90
2022-11-22T13:09:04.342Z,6.80
2022-11-22T13:10:03.579Z,6.80
2022-11-22T13:11:03.483Z,6.80
2022-11-22T13:12:03.529Z,6.80
2022-11-22T13:13:03.549Z,6.80
2022-11-22T13:14:03.516Z,6.80
2022-11-22T13:15:03.746Z,6.80
2022-11-22T13:16:03.068Z,6.80
2022-11-22T13:17:02.769Z,6.80
2022-11-22T13:18:02.692Z,6.70
2022-11-22T13:19:02.987Z,6.70
2022-11-22T13:20:03.637Z,6.70
2022-11-22T13:21:03.051Z,6.70
2022-11-22T13:22:02.805Z,6.70